Date,TemperatureHighF,TemperatureAvgF,TemperatureLowF,DewpointHighF,DewpointAvgF,DewpointLowF,HumidityHigh,HumidityAvg,HumidityLow,PressureMaxIn,PressureMinIn,WindSpeedMaxMPH,WindSpeedAvgMPH,GustSpeedMaxMPH,PrecipitationSumIn
2014-1-1,12,7,0,6,3,-4,92,83,78,30.51,30.13,13,3,15,0.00
2014-1-2,10,2,-3,4,-2,-7,85,82,74,30.58,30.48,6,1,10,0.00
2014-1-3,38,22,0,28,15,-5,86,74,67,30.48,29.61,30,9,33,0.01
2014-1-4,36,22,8,30,15,2,84,76,71,30.31,29.65,18,6,26,0.00
2014-1-5,9,2,-9,2,-8,-19,77,64,47,30.68,30.30,21,7,28,0.00
2014-1-6,6,-4,-11,-8,-14,-19,69,62,51,30.65,30.40,15,4,20,0.00
2014-1-7,34,16,-2,19,6,-10,81,67,53,30.41,30.08,9,1,10,0.00
2014-1-8,20,16,15,16,11,9,87,80,71,30.46,30.28,7,0,9,0.04
2014-1-9,27,18,4,24,14,0,91,83,74,30.42,29.96,16,1,16,0.01
2014-1-10,33,30,25,32,28,22,100,94,90,29.97,29.56,11,1,12,0.01
2014-1-11,47,35,26,33,27,23,95,75,42,29.84,29.66,20,3,20,0.01
2014-1-12,52,43,36,35,30,27,76,62,46,29.73,29.42,15,3,19,0.00
2014-1-13,48,39,30,33,28,24,85,65,47,29.88,29.63,12,3,15,0.00
2014-1-14,45,33,18,34,17,5,72,54,26,30.28,29.66,27,7,32,0.00
2014-1-15,40,24,8,30,15,2,80,67,51,30.31,29.77,16,3,22,0.00
2014-1-16,43,34,17,31,19,6,70,53,41,30.11,29.72,31,12,38,0.00
2014-1-17,35,22,11,18,6,-1,63,50,28,30.24,29.86,14,4,26,0.00
2014-1-18,42,32,20,29,21,14,85,64,53,30.12,29.69,37,8,39,0.00
2014-1-19,66,41,20,29,22,16,87,52,24,30.07,29.69,19,3,20,0.00
2014-1-20,47,29,3,28,17,-5,78,62,43,30.51,29.82,31,6,34,0.00
2014-1-21,25,9,-4,12,-5,-12,72,53,31,30.60,30.13,15,4,19,0.00
2014-1-22,30,17,15,19,-21,-100,80,44,45,30.63,30.11,18,-229,27,0.00
2014-1-23,16,5,-5,-3,-43,-100,74,31,37,30.96,30.56,15,-299,17,0.00
2014-1-24,52,32,11,36,16,-6,69,52,37,30.56,29.73,21,8,26,0.00
2014-1-25,48,37,31,35,27,18,92,67,47,30.07,29.58,17,5,25,0.00
2014-1-26,53,37,6,32,21,-8,71,53,31,30.34,29.55,29,10,36,0.00
2014-1-27,12,3,-3,-6,-10,-14,71,55,38,30.60,30.34,12,3,23,0.00
2014-1-28,21,7,-7,-1,-7,-14,74,53,34,30.58,30.31,14,2,17,0.00
2014-1-29,45,25,3,16,8,-6,76,51,30,30.32,29.61,26,6,26,0.00
2014-1-30,40,31,18,23,14,8,64,50,34,30.12,29.43,30,8,31,0.00
2014-1-31,26,19,13,18,10,6,94,68,53,30.23,30.01,7,1,13,0.00